Atlantic City, New Jersey
Current Conditions -  °F | °C
As of 3:54 PM on Monday 24 Nov 2014 (Local Time) from KACY Reporting Station
Clear Clear  
Wind Chill: 64°   Ceiling: Unl
Heat Index: 64°   Visibility: 10mi
Dew Point: 57°   Wind: 16mph
Humidity: 78%   Direction: 190°S
Pressure: 29.68"   Gusts: 21mph
Location:  39.36°N, 74.43°W
Report Text: KACY 242054Z 19014G18KT 10SM CLR 18/14 A2968 RMK AO2 SLP049 T01780139 53003
Loading
Personal Weather Stations






























Interactive Weather Map New forecast layout! Learn more

10-Day Weather Forecast

Advertisements
Track Severe Weather on mobile